Time;durP1;ratioP1;P1;durP2;ratioP2;P2;SDS_P1;SDS_P2;PMS_P1;PMS_P2;Temp;Humidity;BMP_temperature;BMP_pressure;BME280_temperature;BME280_humidity;BME280_pressure;Samples;Min_cycle;Max_cycle;Signal;HPM_P1;HPM_P2
2022/09/25 00:01:11;;;;;;;;;;;15.40;88.80;;;;;;5092137;28;19955;-93
2022/09/25 00:03:37;;;;;;;;;;;15.40;88.50;;;;;;5093396;28;19947;-92
2022/09/25 00:06:02;;;;;;;;;;;15.50;88.50;;;;;;5093523;28;19941;-93
2022/09/25 00:08:28;;;;;;;;;;;15.50;88.40;;;;;;5093536;28;19950;-93
2022/09/25 00:10:53;;;;;;;;;;;15.50;88.20;;;;;;5093353;28;19944;-93
2022/09/25 00:13:19;;;;;;;;;;;15.50;88.30;;;;;;5093476;28;20028;-93
2022/09/25 00:15:46;;;;;;;;;;;15.50;88.50;;;;;;5093291;28;20069;-93
2022/09/25 00:18:12;;;;;;;;;;;15.50;88.50;;;;;;5093302;28;19963;-93
2022/09/25 00:20:38;;;;;;;;;;;15.50;88.40;;;;;;5093342;28;19942;-93
2022/09/25 00:23:03;;;;;;;;;;;15.50;88.40;;;;;;5095357;28;19949;-93
2022/09/25 00:25:29;;;;;;;;;;;15.50;88.30;;;;;;5097326;28;19965;-93
2022/09/25 00:27:55;;;;;;;;;;;15.50;88.20;;;;;;5097265;28;20031;-93
2022/09/25 00:30:20;;;;;;;;;;;15.50;88.10;;;;;;5097084;28;19990;-93
2022/09/25 00:32:46;;;;;;;;;;;15.50;88.10;;;;;;5097190;28;19949;-92
2022/09/25 00:35:11;;;;;;;;;;;15.50;88.00;;;;;;5097446;28;19945;-93
2022/09/25 00:37:37;;;;;;;;;;;15.60;87.80;;;;;;5097080;28;19982;-93
2022/09/25 00:40:04;;;;;;;;;;;15.60;87.50;;;;;;5096982;28;20424;-92
2022/09/25 00:42:29;;;;;;;;;;;15.50;87.40;;;;;;5097005;28;19943;-93
2022/09/25 00:44:59;;;;;;;;;;;15.50;87.50;;;;;;5097293;28;19945;-93
2022/09/25 00:47:44;;;;;;;;;;;15.50;87.40;;;;;;5096986;28;19939;-93
2022/09/25 00:50:15;;;;;;;;;;;15.50;87.50;;;;;;5096568;28;19952;-93
2022/09/25 00:52:41;;;;;;;;;;;15.50;87.40;;;;;;5096762;28;20488;-93
2022/09/25 00:55:08;;;;;;;;;;;15.50;87.50;;;;;;5096760;28;20441;-93
2022/09/25 00:57:35;;;;;;;;;;;15.50;87.30;;;;;;5096696;28;19955;-93
2022/09/25 01:00:08;;;;;;;;;;;15.50;87.40;;;;;;5096625;28;19940;-93
2022/09/25 01:02:37;;;;;;;;;;;15.50;87.40;;;;;;5096627;28;19948;-93
2022/09/25 01:05:05;;;;;;;;;;;15.50;87.60;;;;;;5096556;28;20011;-92
2022/09/25 01:07:35;;;;;;;;;;;15.50;87.60;;;;;;5078353;28;20407;-92
2022/09/25 01:10:02;;;;;;;;;;;15.50;87.50;;;;;;5096295;28;19942;-93
2022/09/25 01:12:27;;;;;;;;;;;15.50;87.40;;;;;;5096460;28;20212;-93
2022/09/25 01:14:54;;;;;;;;;;;15.60;87.40;;;;;;5096416;28;19976;-93
2022/09/25 01:17:34;;;;;;;;;;;15.60;87.30;;;;;;5096208;28;19938;-93
2022/09/25 01:20:09;;;;;;;;;;;15.60;87.10;;;;;;5095232;28;19942;-92
2022/09/25 01:22:34;;;;;;;;;;;15.60;87.00;;;;;;5096267;28;19952;-93
2022/09/25 01:25:00;;;;;;;;;;;15.70;87.00;;;;;;5096400;28;19941;-93
2022/09/25 01:27:34;;;;;;;;;;;15.60;86.80;;;;;;5096229;28;20067;-93
2022/09/25 01:30:00;;;;;;;;;;;15.60;86.80;;;;;;5096053;28;20417;-93
2022/09/25 01:32:38;;;;;;;;;;;15.60;86.90;;;;;;5096180;28;19954;-93
2022/09/25 01:35:23;;;;;;;;;;;15.60;87.10;;;;;;5094760;28;19942;-93
2022/09/25 01:37:55;;;;;;;;;;;15.60;87.00;;;;;;5095807;28;19964;-93
2022/09/25 01:40:24;;;;;;;;;;;15.60;87.10;;;;;;5095528;28;19939;-93
2022/09/25 01:42:52;;;;;;;;;;;15.60;87.10;;;;;;5096014;28;19966;-93
2022/09/25 01:45:20;;;;;;;;;;;15.60;87.10;;;;;;5095744;28;20022;-92
2022/09/25 01:47:49;;;;;;;;;;;15.60;87.00;;;;;;5096035;28;19956;-92
2022/09/25 01:50:35;;;;;;;;;;;15.60;86.90;;;;;;5095574;28;19942;-93
2022/09/25 01:53:02;;;;;;;;;;;15.60;86.90;;;;;;5095591;28;20406;-92
2022/09/25 01:55:37;;;;;;;;;;;15.60;87.00;;;;;;5095583;28;19940;-92
2022/09/25 01:58:07;;;;;;;;;;;15.60;87.10;;;;;;5095426;28;19966;-92
2022/09/25 02:00:35;;;;;;;;;;;15.50;87.20;;;;;;5094998;28;20456;-92
2022/09/25 02:03:06;;;;;;;;;;;15.60;87.30;;;;;;5095090;28;20422;-93
2022/09/25 02:05:37;;;;;;;;;;;15.60;87.50;;;;;;5095489;28;19966;-93
2022/09/25 02:08:04;;;;;;;;;;;15.50;87.60;;;;;;5095421;28;20078;-93
2022/09/25 02:10:33;;;;;;;;;;;15.60;87.50;;;;;;5095271;28;19944;-93
2022/09/25 02:13:03;;;;;;;;;;;15.60;87.60;;;;;;5077074;28;20424;-92
2022/09/25 02:15:29;;;;;;;;;;;15.70;87.60;;;;;;5086374;28;19982;-93
2022/09/25 02:20:49;;;;;;;;;;;15.60;87.70;;;;;;5095115;28;19948;-93
2022/09/25 02:23:17;;;;;;;;;;;15.60;88.00;;;;;;5095119;28;19946;-93
2022/09/25 02:25:45;;;;;;;;;;;15.60;88.10;;;;;;5076962;28;20007;-93
2022/09/25 02:28:10;;;;;;;;;;;15.60;88.10;;;;;;5094985;28;19940;-93
2022/09/25 02:30:36;;;;;;;;;;;15.60;88.10;;;;;;5094831;28;19950;-93
2022/09/25 02:33:02;;;;;;;;;;;15.60;88.10;;;;;;5094846;28;19947;-93
2022/09/25 02:35:27;;;;;;;;;;;15.60;88.10;;;;;;5094924;28;20043;-92
2022/09/25 02:37:55;;;;;;;;;;;15.60;88.10;;;;;;5094801;28;20020;-92
2022/09/25 02:40:25;;;;;;;;;;;15.50;88.10;;;;;;5094634;28;19947;-93
2022/09/25 02:43:06;;;;;;;;;;;15.50;88.20;;;;;;5094672;28;19988;-93
2022/09/25 02:45:49;;;;;;;;;;;15.50;88.30;;;;;;5094465;28;19947;-93
2022/09/25 02:48:15;;;;;;;;;;;15.50;88.30;;;;;;5094668;28;19943;-93
2022/09/25 02:51:02;;;;;;;;;;;15.40;88.30;;;;;;5094092;28;19994;-93
2022/09/25 02:53:34;;;;;;;;;;;15.40;88.30;;;;;;5094712;28;19987;-93
2022/09/25 02:56:04;;;;;;;;;;;15.40;88.20;;;;;;5094413;28;19951;-93
2022/09/25 02:58:30;;;;;;;;;;;15.40;88.10;;;;;;5094301;28;20009;-93
2022/09/25 03:00:56;;;;;;;;;;;15.40;88.10;;;;;;5094251;28;19978;-93
2022/09/25 03:03:23;;;;;;;;;;;15.30;88.30;;;;;;5076220;28;19953;-92
2022/09/25 03:05:50;;;;;;;;;;;15.30;88.60;;;;;;5094292;28;19949;-93
2022/09/25 03:11:00;;;;;;;;;;;15.20;89.00;;;;;;5094285;28;19956;-93
2022/09/25 03:13:30;;;;;;;;;;;15.10;89.20;;;;;;5094292;28;20030;-93
2022/09/25 03:15:58;;;;;;;;;;;15.10;89.20;;;;;;5093888;28;19983;-93
2022/09/25 03:18:24;;;;;;;;;;;15.20;89.20;;;;;;5093882;28;20008;-93
2022/09/25 03:20:50;;;;;;;;;;;15.20;89.30;;;;;;5081496;28;19945;-93
2022/09/25 03:23:16;;;;;;;;;;;15.20;89.30;;;;;;5073634;28;20454;-93
2022/09/25 03:25:41;;;;;;;;;;;15.20;89.30;;;;;;5073706;28;19944;-92
2022/09/25 03:28:10;;;;;;;;;;;15.30;89.30;;;;;;5073621;28;19943;-93
2022/09/25 03:30:39;;;;;;;;;;;15.30;89.40;;;;;;5073761;28;19943;-93
2022/09/25 03:33:05;;;;;;;;;;;15.30;89.50;;;;;;5073621;28;19944;-93
2022/09/25 03:35:31;;;;;;;;;;;15.30;89.50;;;;;;5073842;28;19941;-92
2022/09/25 03:37:57;;;;;;;;;;;15.30;89.50;;;;;;5073549;28;19986;-92
2022/09/25 03:40:22;;;;;;;;;;;15.30;89.50;;;;;;5073430;28;20298;-93
2022/09/25 03:42:48;;;;;;;;;;;15.30;89.40;;;;;;5073512;28;19943;-93
2022/09/25 03:45:13;;;;;;;;;;;15.30;89.40;;;;;;5073522;28;19943;-93
2022/09/25 03:47:39;;;;;;;;;;;15.30;89.50;;;;;;5073748;28;20424;-92
2022/09/25 03:50:07;;;;;;;;;;;15.30;89.40;;;;;;5073446;28;19948;-93
2022/09/25 03:52:33;;;;;;;;;;;15.20;89.10;;;;;;5073415;28;19982;-93
2022/09/25 03:54:58;;;;;;;;;;;15.10;89.10;;;;;;5073319;28;19983;-92
2022/09/25 03:57:24;;;;;;;;;;;15.10;89.10;;;;;;5074482;28;20453;-93
2022/09/25 03:59:50;;;;;;;;;;;15.00;89.30;;;;;;5077421;28;19987;-93
2022/09/25 04:02:16;;;;;;;;;;;15.00;89.30;;;;;;5077558;28;19982;-93
2022/09/25 04:04:44;;;;;;;;;;;15.00;89.70;;;;;;5077453;28;20018;-92
2022/09/25 04:07:10;;;;;;;;;;;14.90;89.90;;;;;;5077415;28;19945;-92
2022/09/25 04:09:35;;;;;;;;;;;14.90;90.10;;;;;;5077314;28;19987;-93
2022/09/25 04:12:01;;;;;;;;;;;14.90;90.00;;;;;;5077406;28;19942;-92
2022/09/25 04:14:27;;;;;;;;;;;14.90;90.00;;;;;;5081235;28;19981;-92
2022/09/25 04:16:52;;;;;;;;;;;14.90;89.80;;;;;;5097568;28;19939;-93
2022/09/25 04:19:18;;;;;;;;;;;14.90;89.90;;;;;;5097409;28;19966;-93
2022/09/25 04:21:43;;;;;;;;;;;14.90;89.90;;;;;;5097271;28;19941;-92
2022/09/25 04:26:53;;;;;;;;;;;14.90;90.40;;;;;;5097411;28;20311;-93
2022/09/25 04:29:20;;;;;;;;;;;14.80;90.50;;;;;;5097298;28;19936;-93
2022/09/25 04:33:44;;;;;;;;;;;14.80;90.30;;;;;;5097174;28;19943;-92
2022/09/25 04:34:31;;;;;;;;;;;14.80;90.10;;;;;;5097059;28;19951;-92
2022/09/25 04:36:56;;;;;;;;;;;14.70;90.30;;;;;;5097137;28;19944;-92
2022/09/25 04:39:22;;;;;;;;;;;14.60;90.60;;;;;;5097100;28;19949;-93
2022/09/25 04:41:47;;;;;;;;;;;14.60;90.70;;;;;;5096996;28;20042;-92
2022/09/25 04:44:13;;;;;;;;;;;14.50;90.70;;;;;;5097265;28;20404;-92
2022/09/25 04:46:38;;;;;;;;;;;14.40;90.90;;;;;;5096966;28;20417;-93
2022/09/25 04:49:04;;;;;;;;;;;14.40;91.20;;;;;;5096944;28;19941;-92
2022/09/25 04:51:30;;;;;;;;;;;14.40;91.30;;;;;;5096511;28;19965;-93
2022/09/25 04:53:55;;;;;;;;;;;14.40;91.40;;;;;;5096941;28;19942;-92
2022/09/25 04:56:21;;;;;;;;;;;14.40;91.50;;;;;;5096719;28;19938;-93
2022/09/25 04:58:48;;;;;;;;;;;14.40;91.60;;;;;;5096883;28;20014;-93
2022/09/25 05:01:14;;;;;;;;;;;14.50;91.60;;;;;;5096632;28;19943;-93
2022/09/25 05:03:39;;;;;;;;;;;14.50;91.50;;;;;;5096696;28;19988;-93
2022/09/25 05:06:05;;;;;;;;;;;14.50;91.50;;;;;;5096465;28;20323;-93
2022/09/25 05:08:31;;;;;;;;;;;14.50;91.40;;;;;;5096509;28;19941;-93
2022/09/25 05:10:56;;;;;;;;;;;14.50;91.30;;;;;;5096269;28;19950;-92
2022/09/25 05:13:22;;;;;;;;;;;14.50;91.20;;;;;;5096532;28;19941;-93
2022/09/25 05:15:48;;;;;;;;;;;14.50;91.10;;;;;;5094861;28;20501;-92
2022/09/25 05:18:17;;;;;;;;;;;14.40;91.00;;;;;;5096264;28;20058;-93
2022/09/25 05:20:43;;;;;;;;;;;14.30;91.20;;;;;;5096430;28;20086;-92
2022/09/25 05:23:09;;;;;;;;;;;14.20;91.50;;;;;;5096271;28;19939;-93
2022/09/25 05:25:35;;;;;;;;;;;14.20;91.50;;;;;;5094835;28;19977;-93
2022/09/25 05:28:01;;;;;;;;;;;14.20;91.50;;;;;;5095926;28;19938;-93
2022/09/25 05:30:30;;;;;;;;;;;14.20;91.60;;;;;;5096223;28;19943;-92
2022/09/25 05:32:59;;;;;;;;;;;14.10;91.60;;;;;;5096013;28;19940;-92
2022/09/25 05:35:25;;;;;;;;;;;14.00;91.80;;;;;;5096177;28;19937;-92
2022/09/25 05:37:51;;;;;;;;;;;13.90;92.10;;;;;;5095786;28;19968;-92
2022/09/25 05:40:18;;;;;;;;;;;13.90;92.40;;;;;;5095913;28;19946;-93
2022/09/25 05:42:43;;;;;;;;;;;13.90;92.50;;;;;;5095881;28;19940;-92
2022/09/25 05:45:13;;;;;;;;;;;14.00;92.70;;;;;;5095716;28;19977;-93
2022/09/25 05:47:39;;;;;;;;;;;14.00;92.70;;;;;;5095810;28;20037;-93
2022/09/25 05:50:04;;;;;;;;;;;14.00;92.60;;;;;;5095621;28;19936;-92
2022/09/25 05:52:30;;;;;;;;;;;14.00;92.60;;;;;;5095011;28;20044;-92
2022/09/25 05:54:56;;;;;;;;;;;14.00;92.70;;;;;;5088628;28;19941;-92
2022/09/25 05:57:22;;;;;;;;;;;14.10;92.70;;;;;;5095572;28;20031;-93
2022/09/25 05:59:48;;;;;;;;;;;14.10;92.80;;;;;;5095911;28;20036;-93
2022/09/25 06:02:14;;;;;;;;;;;14.20;92.80;;;;;;5095548;28;20367;-92
2022/09/25 06:04:40;;;;;;;;;;;14.30;92.80;;;;;;5095681;28;20442;-93
2022/09/25 06:07:05;;;;;;;;;;;14.40;92.80;;;;;;5095819;28;19939;-93
2022/09/25 06:09:31;;;;;;;;;;;14.40;92.70;;;;;;5095383;28;19939;-93
2022/09/25 06:11:57;;;;;;;;;;;14.50;92.60;;;;;;5095357;28;20338;-93
2022/09/25 06:14:22;;;;;;;;;;;14.60;92.50;;;;;;5095041;28;20426;-93
2022/09/25 06:16:49;;;;;;;;;;;14.70;92.40;;;;;;5095224;28;20022;-93
2022/09/25 06:19:14;;;;;;;;;;;14.80;92.20;;;;;;5095247;28;19961;-92
2022/09/25 06:21:40;;;;;;;;;;;14.90;91.80;;;;;;5076438;28;20036;-92
2022/09/25 06:24:05;;;;;;;;;;;14.90;91.40;;;;;;5095075;28;19945;-92
2022/09/25 06:26:32;;;;;;;;;;;14.90;91.30;;;;;;5086824;28;19958;-93
2022/09/25 06:28:58;;;;;;;;;;;14.90;91.20;;;;;;5074739;28;19965;-93
2022/09/25 06:31:24;;;;;;;;;;;14.90;91.10;;;;;;5086146;28;20041;-93
2022/09/25 06:33:50;;;;;;;;;;;14.90;91.10;;;;;;5085631;28;20031;-92
2022/09/25 06:36:15;;;;;;;;;;;15.00;91.10;;;;;;5074521;28;20364;-93
2022/09/25 06:38:41;;;;;;;;;;;15.00;91.10;;;;;;5074319;28;20534;-93
2022/09/25 06:41:06;;;;;;;;;;;15.00;91.20;;;;;;5074789;28;19942;-93
2022/09/25 06:43:32;;;;;;;;;;;15.00;91.30;;;;;;5074518;28;19942;-93
2022/09/25 06:45:58;;;;;;;;;;;15.10;91.30;;;;;;5075022;28;19941;-92
2022/09/25 06:48:24;;;;;;;;;;;15.20;91.30;;;;;;5076161;28;19991;-93
2022/09/25 06:50:53;;;;;;;;;;;15.30;91.20;;;;;;5074977;28;19967;-93
2022/09/25 06:53:20;;;;;;;;;;;15.30;90.80;;;;;;5075126;28;19984;-92
2022/09/25 06:55:46;;;;;;;;;;;15.40;90.60;;;;;;5074660;28;19940;-93
2022/09/25 06:58:13;;;;;;;;;;;15.60;90.20;;;;;;5074805;28;19957;-93
2022/09/25 07:00:39;;;;;;;;;;;15.70;90.10;;;;;;5074454;28;19938;-93
2022/09/25 07:05:48;;;;;;;;;;;15.80;88.50;;;;;;5074385;28;19942;-93
2022/09/25 07:08:15;;;;;;;;;;;15.90;87.40;;;;;;5074421;28;20033;-93
2022/09/25 07:10:50;;;;;;;;;;;15.90;87.30;;;;;;5074488;28;19967;-92
2022/09/25 07:13:16;;;;;;;;;;;16.00;87.60;;;;;;5074483;28;19942;-92
2022/09/25 07:15:42;;;;;;;;;;;16.10;87.40;;;;;;5110031;22;19979;-93
2022/09/25 07:18:08;;;;;;;;;;;16.10;87.20;;;;;;5114740;28;20016;-93
2022/09/25 07:20:33;;;;;;;;;;;16.10;86.10;;;;;;5114913;28;20457;-93
2022/09/25 07:23:03;;;;;;;;;;;16.10;86.60;;;;;;5114773;28;19938;-93
2022/09/25 07:25:30;;;;;;;;;;;16.10;85.10;;;;;;5114550;28;19943;-92
2022/09/25 07:27:56;;;;;;;;;;;16.20;86.00;;;;;;5114679;28;19935;-93
2022/09/25 07:30:21;;;;;;;;;;;16.20;85.20;;;;;;5114722;28;20407;-93
2022/09/25 07:32:47;;;;;;;;;;;16.30;85.40;;;;;;5113929;28;20002;-93
2022/09/25 07:35:12;;;;;;;;;;;16.30;85.00;;;;;;5114568;28;19938;-93
2022/09/25 07:37:38;;;;;;;;;;;16.30;84.90;;;;;;5114601;28;20033;-93
2022/09/25 07:40:04;;;;;;;;;;;16.40;84.60;;;;;;5114315;28;20396;-93
2022/09/25 07:42:29;;;;;;;;;;;16.50;84.30;;;;;;5114425;28;19966;-93
2022/09/25 07:44:55;;;;;;;;;;;16.60;83.90;;;;;;5114696;28;19944;-93
2022/09/25 07:47:20;;;;;;;;;;;16.60;83.20;;;;;;5114614;28;19970;-93
2022/09/25 07:49:46;;;;;;;;;;;16.70;83.20;;;;;;5114319;28;20470;-93
2022/09/25 07:52:13;;;;;;;;;;;16.80;83.80;;;;;;5114254;28;20330;-92
2022/09/25 07:54:38;;;;;;;;;;;16.90;82.40;;;;;;5114330;28;19936;-92
2022/09/25 07:57:04;;;;;;;;;;;17.00;82.20;;;;;;5114307;28;19953;-93
2022/09/25 07:59:30;;;;;;;;;;;17.00;81.80;;;;;;5114184;28;20020;-93
2022/09/25 08:01:56;;;;;;;;;;;17.10;81.10;;;;;;5114159;28;20491;-93
2022/09/25 08:04:22;;;;;;;;;;;17.10;81.00;;;;;;5114132;28;19935;-93
2022/09/25 08:06:47;;;;;;;;;;;17.20;80.90;;;;;;5114167;28;20023;-93
2022/09/25 08:09:13;;;;;;;;;;;17.10;81.00;;;;;;5114014;28;19938;-93
2022/09/25 08:11:39;;;;;;;;;;;17.10;81.30;;;;;;5114303;28;19995;-93
2022/09/25 08:14:04;;;;;;;;;;;17.10;82.20;;;;;;5113147;28;20408;-93
2022/09/25 08:16:30;;;;;;;;;;;17.20;82.00;;;;;;5093642;28;19953;-93
2022/09/25 08:18:55;;;;;;;;;;;17.20;82.10;;;;;;5093566;28;19960;-93
2022/09/25 08:21:21;;;;;;;;;;;17.20;82.00;;;;;;5093544;28;19943;-93
2022/09/25 08:23:51;;;;;;;;;;;17.30;82.30;;;;;;5093666;28;20056;-92
2022/09/25 08:26:17;;;;;;;;;;;17.40;82.40;;;;;;5093483;28;19939;-93
2022/09/25 08:28:43;;;;;;;;;;;17.60;80.90;;;;;;5093458;28;19939;-93
2022/09/25 08:31:08;;;;;;;;;;;17.60;79.90;;;;;;5093494;28;19938;-93
2022/09/25 08:33:34;;;;;;;;;;;17.60;80.10;;;;;;5093460;28;19941;-93
2022/09/25 08:36:01;;;;;;;;;;;17.70;81.20;;;;;;5093315;28;20312;-93
2022/09/25 08:38:27;;;;;;;;;;;17.80;82.30;;;;;;5093325;28;19972;-93
2022/09/25 08:40:53;;;;;;;;;;;17.90;80.40;;;;;;5093196;28;19940;-93
2022/09/25 08:43:20;;;;;;;;;;;17.90;79.90;;;;;;5094091;28;20313;-93
2022/09/25 08:51:20;;;;;;;;;;;18.30;78.50;;;;;;5097181;28;20102;-93
2022/09/25 08:53:46;;;;;;;;;;;18.40;79.00;;;;;;5096983;28;20405;-93
2022/09/25 08:56:18;;;;;;;;;;;18.50;80.70;;;;;;5097063;28;20034;-93
2022/09/25 08:59:14;;;;;;;;;;;18.40;79.20;;;;;;5096823;28;19959;-93
2022/09/25 09:01:46;;;;;;;;;;;18.50;78.90;;;;;;5063307;28;19942;-93
2022/09/25 09:04:20;;;;;;;;;;;18.60;79.00;;;;;;5076778;28;20030;-93
2022/09/25 09:06:48;;;;;;;;;;;18.40;79.10;;;;;;5076326;28;19988;-92
2022/09/25 09:09:19;;;;;;;;;;;18.30;78.80;;;;;;5076296;28;19946;-92
2022/09/25 09:11:51;;;;;;;;;;;18.30;77.60;;;;;;5076326;28;20309;-93
2022/09/25 09:14:21;;;;;;;;;;;18.30;77.40;;;;;;5078816;28;19957;-93
2022/09/25 09:16:58;;;;;;;;;;;18.50;78.30;;;;;;5096408;28;19944;-93
2022/09/25 09:19:24;;;;;;;;;;;18.70;77.20;;;;;;5096389;28;19960;-93
2022/09/25 09:21:52;;;;;;;;;;;18.70;74.90;;;;;;5104069;28;19991;-92
2022/09/25 09:24:26;;;;;;;;;;;18.70;76.70;;;;;;5117045;28;19946;-93
2022/09/25 09:27:15;;;;;;;;;;;18.80;76.60;;;;;;5116642;28;20462;-92
2022/09/25 09:29:55;;;;;;;;;;;18.70;76.50;;;;;;5117004;28;19940;-93
2022/09/25 09:32:21;;;;;;;;;;;18.80;76.40;;;;;;5116921;28;19967;-93
2022/09/25 09:35:07;;;;;;;;;;;19.00;77.10;;;;;;5116675;28;20342;-93
2022/09/25 09:37:32;;;;;;;;;;;19.00;76.50;;;;;;5074678;28;20417;-93
2022/09/25 09:40:01;;;;;;;;;;;19.00;76.90;;;;;;5116522;28;20028;-93
2022/09/25 09:42:39;;;;;;;;;;;19.10;76.70;;;;;;5116415;28;20413;-93
2022/09/25 09:45:08;;;;;;;;;;;19.20;75.90;;;;;;5116772;28;19993;-93
2022/09/25 09:47:39;;;;;;;;;;;19.10;75.10;;;;;;5116613;28;19971;-93
2022/09/25 09:50:14;;;;;;;;;;;19.10;74.90;;;;;;5116317;28;19935;-92
2022/09/25 09:52:41;;;;;;;;;;;19.10;74.00;;;;;;5116341;28;19997;-93
2022/09/25 09:55:19;;;;;;;;;;;18.90;74.70;;;;;;5115423;28;19934;-92
2022/09/25 09:57:47;;;;;;;;;;;19.10;75.70;;;;;;5116121;28;19960;-93
2022/09/25 10:00:14;;;;;;;;;;;19.20;75.10;;;;;;5116194;28;19980;-92
2022/09/25 10:02:47;;;;;;;;;;;19.30;74.80;;;;;;5116239;28;19939;-93
2022/09/25 10:05:16;;;;;;;;;;;19.30;75.30;;;;;;5116267;28;19943;-93
2022/09/25 10:07:42;;;;;;;;;;;19.40;73.90;;;;;;5116062;28;19943;-93
2022/09/25 10:10:13;;;;;;;;;;;19.60;74.30;;;;;;5116041;28;19999;-93
2022/09/25 10:12:41;;;;;;;;;;;19.90;71.70;;;;;;5115977;28;20458;-93
2022/09/25 10:15:14;;;;;;;;;;;20.20;71.00;;;;;;5115797;28;19979;-93
2022/09/25 10:17:40;;;;;;;;;;;20.10;70.50;;;;;;5115886;28;19946;-93
2022/09/25 10:20:26;;;;;;;;;;;20.20;70.50;;;;;;5114427;28;19999;-93
2022/09/25 10:22:55;;;;;;;;;;;20.50;70.50;;;;;;5115124;28;20047;-93
2022/09/25 10:25:34;;;;;;;;;;;20.70;70.00;;;;;;5115733;28;19963;-93
2022/09/25 10:27:59;;;;;;;;;;;20.40;70.30;;;;;;5115777;28;19947;-93
2022/09/25 10:30:25;;;;;;;;;;;20.30;70.80;;;;;;5115837;28;19939;-93
2022/09/25 10:32:50;;;;;;;;;;;20.10;70.20;;;;;;5115638;28;20411;-93
2022/09/25 10:35:21;;;;;;;;;;;19.90;71.30;;;;;;5115755;28;20032;-93
2022/09/25 10:37:48;;;;;;;;;;;20.00;71.50;;;;;;5115539;28;19961;-93
2022/09/25 10:40:22;;;;;;;;;;;20.10;72.40;;;;;;5115435;28;20302;-93
2022/09/25 10:42:47;;;;;;;;;;;20.20;70.90;;;;;;5115747;28;20001;-93
2022/09/25 10:45:25;;;;;;;;;;;20.10;71.40;;;;;;5115421;28;20033;-93
2022/09/25 10:50:35;;;;;;;;;;;20.10;71.50;;;;;;5115176;28;19947;-93
2022/09/25 10:53:03;;;;;;;;;;;20.00;71.70;;;;;;5115292;28;19970;-93
2022/09/25 10:55:34;;;;;;;;;;;20.10;71.80;;;;;;5115212;28;19942;-93
2022/09/25 10:58:05;;;;;;;;;;;20.00;74.00;;;;;;5115230;28;20051;-93
2022/09/25 11:00:36;;;;;;;;;;;20.00;72.00;;;;;;5115251;28;20361;-93
2022/09/25 11:03:03;;;;;;;;;;;20.00;71.80;;;;;;5115084;28;20280;-93
2022/09/25 11:05:34;;;;;;;;;;;20.30;73.80;;;;;;5115014;28;20396;-93
2022/09/25 11:08:01;;;;;;;;;;;20.60;71.30;;;;;;5115047;28;19950;-93
2022/09/25 11:10:30;;;;;;;;;;;20.60;69.60;;;;;;5114882;28;19978;-93
2022/09/25 11:12:56;;;;;;;;;;;20.60;70.60;;;;;;5114906;28;19984;-92
2022/09/25 11:15:24;;;;;;;;;;;20.40;69.30;;;;;;5114858;28;19980;-93
2022/09/25 11:17:51;;;;;;;;;;;20.40;69.30;;;;;;5114912;28;19961;-93
2022/09/25 11:20:26;;;;;;;;;;;20.50;68.50;;;;;;5114749;28;19941;-93
2022/09/25 11:22:56;;;;;;;;;;;20.80;69.30;;;;;;5114683;28;19945;-93
2022/09/25 11:25:35;;;;;;;;;;;20.90;66.10;;;;;;5114697;28;20308;-93
2022/09/25 11:28:11;;;;;;;;;;;20.80;66.00;;;;;;5114614;28;19980;-93
2022/09/25 11:30:39;;;;;;;;;;;20.90;65.70;;;;;;5114472;28;19934;-93
2022/09/25 11:33:11;;;;;;;;;;;21.00;64.70;;;;;;5113263;28;19964;-93
2022/09/25 11:35:56;;;;;;;;;;;21.00;67.10;;;;;;5114586;28;19936;-93
2022/09/25 11:41:53;;;;;;;;;;;21.10;69.00;;;;;;5114362;28;20398;-93
2022/09/25 11:44:53;;;;;;;;;;;21.30;67.30;;;;;;5114466;28;19945;-93
2022/09/25 11:47:26;;;;;;;;;;;21.60;66.50;;;;;;5099031;28;19943;-93
2022/09/25 11:49:53;;;;;;;;;;;21.60;66.00;;;;;;5100734;28;19990;-92
2022/09/25 11:52:41;;;;;;;;;;;21.60;68.00;;;;;;5093904;28;19961;-92
2022/09/25 11:55:26;;;;;;;;;;;21.20;67.00;;;;;;5094045;28;19939;-93
2022/09/25 11:58:10;;;;;;;;;;;21.30;66.00;;;;;;5094045;28;19963;-93
2022/09/25 12:00:54;;;;;;;;;;;21.80;67.60;;;;;;5093971;28;19951;-93
2022/09/25 12:03:45;;;;;;;;;;;21.80;64.80;;;;;;5093848;28;19939;-93
2022/09/25 12:06:20;;;;;;;;;;;22.00;65.70;;;;;;5093809;28;19947;-93
2022/09/25 12:09:05;;;;;;;;;;;21.60;64.70;;;;;;5092558;28;20388;-93
2022/09/25 12:11:44;;;;;;;;;;;21.20;66.10;;;;;;5093998;28;19938;-93
2022/09/25 12:14:30;;;;;;;;;;;20.90;66.40;;;;;;5093557;28;19949;-93
2022/09/25 12:17:08;;;;;;;;;;;20.90;67.60;;;;;;5093759;28;19977;-93
2022/09/25 12:19:44;;;;;;;;;;;20.80;68.60;;;;;;5096870;28;20058;-93
2022/09/25 12:22:18;;;;;;;;;;;20.90;69.40;;;;;;5097864;28;19938;-93
2022/09/25 12:24:43;;;;;;;;;;;21.00;69.20;;;;;;5097688;28;20017;-93
2022/09/25 12:27:23;;;;;;;;;;;20.90;68.40;;;;;;5097715;28;19987;-93
2022/09/25 12:29:56;;;;;;;;;;;20.80;69.40;;;;;;5112559;28;19944;-93
2022/09/25 12:32:27;;;;;;;;;;;20.80;69.10;;;;;;5117786;28;19991;-93
2022/09/25 12:34:54;;;;;;;;;;;20.80;69.50;;;;;;5118003;28;19972;-93
2022/09/25 12:37:42;;;;;;;;;;;20.60;70.10;;;;;;5117927;28;19945;-93
2022/09/25 12:40:28;;;;;;;;;;;20.70;69.40;;;;;;5117920;28;20034;-93
2022/09/25 12:43:02;;;;;;;;;;;20.70;70.50;;;;;;5099453;28;20041;-93
2022/09/25 12:45:46;;;;;;;;;;;20.80;69.50;;;;;;5117760;28;20037;-93
2022/09/25 12:48:38;;;;;;;;;;;20.80;67.70;;;;;;5117748;28;19987;-93
2022/09/25 12:51:05;;;;;;;;;;;21.00;68.40;;;;;;5113284;28;19962;-93
2022/09/25 12:53:39;;;;;;;;;;;21.10;67.80;;;;;;5117486;28;19991;-93
2022/09/25 12:56:13;;;;;;;;;;;21.10;68.60;;;;;;5117531;28;19978;-93
2022/09/25 12:58:58;;;;;;;;;;;21.00;68.20;;;;;;5117349;28;20403;-93
2022/09/25 13:01:32;;;;;;;;;;;20.90;67.90;;;;;;5099124;28;19946;-93
2022/09/25 13:04:03;;;;;;;;;;;21.00;67.70;;;;;;5117374;28;19943;-93
2022/09/25 13:06:31;;;;;;;;;;;21.20;68.70;;;;;;5117274;28;19934;-93
2022/09/25 13:09:06;;;;;;;;;;;21.10;67.30;;;;;;5117218;28;19943;-93
2022/09/25 13:11:37;;;;;;;;;;;21.00;67.80;;;;;;5117208;28;19957;-93
2022/09/25 13:14:04;;;;;;;;;;;21.00;68.70;;;;;;5116915;28;20026;-93
2022/09/25 13:16:30;;;;;;;;;;;21.20;69.50;;;;;;5117085;28;19936;-93
2022/09/25 13:19:10;;;;;;;;;;;21.70;67.90;;;;;;5116762;28;19958;-93
2022/09/25 13:21:41;;;;;;;;;;;22.30;64.10;;;;;;5116962;28;19944;-93
2022/09/25 13:24:11;;;;;;;;;;;22.60;66.70;;;;;;5116990;28;19943;-93
2022/09/25 13:26:47;;;;;;;;;;;22.80;65.30;;;;;;5116797;28;20299;-93
2022/09/25 13:29:26;;;;;;;;;;;22.40;65.10;;;;;;5116411;28;19944;-93
2022/09/25 13:32:01;;;;;;;;;;;22.30;65.40;;;;;;5116283;28;19937;-93
2022/09/25 13:34:26;;;;;;;;;;;22.30;65.00;;;;;;5116696;28;19939;-93
2022/09/25 13:36:54;;;;;;;;;;;22.90;62.60;;;;;;5116621;28;20064;-94
2022/09/25 13:42:06;;;;;;;;;;;24.60;60.60;;;;;;5116742;28;19986;-93
2022/09/25 13:44:47;;;;;;;;;;;24.60;58.00;;;;;;5116680;28;19943;-93
2022/09/25 13:47:16;;;;;;;;;;;23.70;59.10;;;;;;5116499;28;20398;-93
2022/09/25 13:49:49;;;;;;;;;;;23.30;61.80;;;;;;5116391;28;19936;-93
2022/09/25 13:52:27;;;;;;;;;;;22.90;62.40;;;;;;5116390;28;19951;-93
2022/09/25 13:55:06;;;;;;;;;;;22.80;64.40;;;;;;5116582;28;19946;-93
2022/09/25 13:57:51;;;;;;;;;;;22.80;64.30;;;;;;5116231;28;19964;-93
2022/09/25 14:00:16;;;;;;;;;;;22.70;62.60;;;;;;5116371;28;19942;-93
2022/09/25 14:02:45;;;;;;;;;;;22.90;62.40;;;;;;5116249;28;19938;-93
2022/09/25 14:05:15;;;;;;;;;;;23.00;61.00;;;;;;5116094;28;19952;-93
2022/09/25 14:07:41;;;;;;;;;;;22.90;62.70;;;;;;5116079;28;19949;-93
2022/09/25 14:10:09;;;;;;;;;;;23.10;62.20;;;;;;5116086;28;19942;-93
2022/09/25 14:12:42;;;;;;;;;;;23.20;62.80;;;;;;5116279;28;19952;-93
2022/09/25 14:15:12;;;;;;;;;;;23.40;61.90;;;;;;5115733;28;19996;-93
2022/09/25 14:17:40;;;;;;;;;;;23.30;61.10;;;;;;5115813;28;20415;-93
2022/09/25 14:20:26;;;;;;;;;;;22.80;62.70;;;;;;5115946;28;19975;-93
2022/09/25 14:22:54;;;;;;;;;;;22.30;62.90;;;;;;5115855;28;19944;-93
2022/09/25 14:25:46;;;;;;;;;;;22.20;63.40;;;;;;5115879;28;19946;-93
2022/09/25 14:28:17;;;;;;;;;;;22.30;63.10;;;;;;5109435;28;20325;-93
2022/09/25 14:31:03;;;;;;;;;;;22.30;62.50;;;;;;5115889;28;19946;-93
2022/09/25 14:33:37;;;;;;;;;;;22.30;64.30;;;;;;5114902;28;19950;-93
2022/09/25 14:36:09;;;;;;;;;;;22.20;64.70;;;;;;5115567;28;19947;-93
2022/09/25 14:38:43;;;;;;;;;;;22.20;64.60;;;;;;5115580;28;19970;-93
2022/09/25 14:41:28;;;;;;;;;;;22.10;64.40;;;;;;5115078;28;19972;-93
2022/09/25 14:43:54;;;;;;;;;;;22.00;64.30;;;;;;5115546;28;20031;-93
2022/09/25 14:46:20;;;;;;;;;;;21.90;66.60;;;;;;5115413;28;19977;-93
2022/09/25 14:48:51;;;;;;;;;;;21.80;65.60;;;;;;5115296;28;19987;-93
2022/09/25 14:51:24;;;;;;;;;;;21.70;68.00;;;;;;5115131;28;19952;-93
2022/09/25 14:53:58;;;;;;;;;;;21.60;66.80;;;;;;5115160;28;20372;-93
2022/09/25 14:56:24;;;;;;;;;;;21.30;67.60;;;;;;5114979;28;19937;-93